Time;durP1;ratioP1;P1;durP2;ratioP2;P2;SDS_P1;SDS_P2;PMS_P1;PMS_P2;Temp;Humidity;BMP_temperature;BMP_pressure;BME280_temperature;BME280_humidity;BME280_pressure;Samples;Min_cycle;Max_cycle;Signal;HPM_P1;HPM_P2
2023/09/26 00:08:42;;;;;;;11.90;9.60;;;;;;;15.78;85.10;99571.17;435247;1255;99234;-41
2023/09/26 00:18:50;;;;;;;10.10;8.70;;;;;;;15.60;85.16;99567.02;435105;1255;108026;-41
2023/09/26 00:28:57;;;;;;;13.10;9.80;;;;;;;15.56;85.26;99572.94;435158;1256;98500;-41
2023/09/26 00:39:04;;;;;;;11.70;8.80;;;;;;;15.49;85.45;99568.65;434841;1257;468507;-43
2023/09/26 00:49:11;;;;;;;14.70;12.00;;;;;;;15.49;85.71;99571.04;435135;1257;108393;-42
2023/09/26 00:59:20;;;;;;;16.00;11.60;;;;;;;15.43;85.59;99568.96;435114;1252;98825;-41
2023/09/26 01:09:28;;;;;;;18.00;12.30;;;;;;;15.47;85.86;99564.23;435199;1255;107427;-42
2023/09/26 01:19:34;;;;;;;16.90;12.30;;;;;;;15.53;85.79;99552.73;435149;1256;98523;-45
2023/09/26 01:29:42;;;;;;;16.50;12.40;;;;;;;15.55;86.19;99546.09;435209;1256;112366;-42
2023/09/26 01:49:55;;;;;;;14.30;11.90;;;;;;;15.78;86.66;99533.46;435246;1258;99224;-41
2023/09/26 02:00:10;;;;;;;17.50;12.80;;;;;;;15.83;86.77;99530.35;436214;1257;107641;-41
2023/09/26 02:10:19;;;;;;;22.50;13.40;;;;;;;15.87;86.72;99535.11;435172;1256;99314;-42
2023/09/26 02:20:27;;;;;;;18.30;11.90;;;;;;;16.01;86.95;99539.54;435224;1251;112128;-43
2023/09/26 02:30:35;;;;;;;19.90;11.90;;;;;;;16.14;87.09;99548.19;435193;1251;108470;-41
2023/09/26 02:40:43;;;;;;;16.50;12.00;;;;;;;16.08;86.85;99551.92;435357;1255;99234;-41
2023/09/26 02:50:50;;;;;;;19.30;11.40;;;;;;;16.03;86.87;99549.98;435336;1257;108519;-44
2023/09/26 03:01:00;;;;;;;17.60;11.30;;;;;;;16.10;87.26;99546.58;435268;1265;99224;-40
2023/09/26 03:11:09;;;;;;;18.00;11.50;;;;;;;16.14;87.37;99543.13;435417;1251;112420;-41
2023/09/26 03:21:17;;;;;;;16.50;11.90;;;;;;;16.14;87.32;99539.87;435279;1256;108456;-42
2023/09/26 03:31:25;;;;;;;16.20;11.50;;;;;;;16.15;87.59;99539.51;435239;1263;99320;-41
2023/09/26 03:41:34;;;;;;;25.30;12.10;;;;;;;16.26;87.68;99537.84;435203;1251;107599;-42
2023/09/26 03:51:42;;;;;;;15.40;11.50;;;;;;;16.40;87.82;99536.88;435235;1251;99343;-41
2023/09/26 04:01:50;;;;;;;25.40;12.70;;;;;;;16.51;87.95;99526.94;435357;1251;111017;-41
2023/09/26 04:11:58;;;;;;;17.00;11.70;;;;;;;16.51;87.76;99527.21;435173;1256;108263;-42
2023/09/26 04:22:06;;;;;;;20.80;12.90;;;;;;;16.54;87.93;99521.65;435325;1251;99247;-42
2023/09/26 04:32:14;;;;;;;20.40;13.30;;;;;;;16.51;87.99;99521.12;435268;1255;108134;-45
2023/09/26 04:42:22;;;;;;;19.90;12.30;;;;;;;16.55;88.19;99525.66;435174;1264;99320;-43
2023/09/26 04:52:31;;;;;;;18.90;12.60;;;;;;;16.71;88.33;99526.70;435273;1257;112040;-43
2023/09/26 05:02:39;;;;;;;16.50;12.10;;;;;;;16.75;87.95;99521.67;435200;1258;108279;-42
2023/09/26 05:12:47;;;;;;;22.80;14.30;;;;;;;16.84;88.34;99525.12;435343;1256;99330;-43
2023/09/26 05:22:55;;;;;;;15.50;12.30;;;;;;;16.82;88.09;99525.26;435190;1257;108504;-45
2023/09/26 05:33:04;;;;;;;17.10;12.10;;;;;;;16.89;88.19;99521.97;435194;1257;99186;-43
2023/09/26 05:43:12;;;;;;;18.70;10.50;;;;;;;17.00;88.18;99531.71;435177;1266;111679;-42
2023/09/26 05:53:21;;;;;;;17.60;10.90;;;;;;;17.12;88.00;99538.65;435236;1251;108625;-41
2023/09/26 06:03:29;;;;;;;21.50;10.90;;;;;;;17.25;88.07;99543.50;435267;1251;99359;-42
2023/09/26 06:13:36;;;;;;;;;;;;;;;17.37;88.22;99544.42;435324;1256;109071;-42
2023/09/26 06:23:45;;;;;;;18.10;11.60;;;;;;;17.36;88.27;99542.02;435077;1256;99217;-42
2023/09/26 06:33:54;;;;;;;20.20;13.00;;;;;;;17.51;88.39;99534.03;435427;1254;112128;-42
2023/09/26 06:44:02;;;;;;;23.80;13.10;;;;;;;17.70;88.17;99533.53;435269;1253;108046;-43
2023/09/26 06:54:10;;;;;;;22.90;13.50;;;;;;;17.92;88.37;99536.77;435248;1256;99243;-42
2023/09/26 07:04:18;;;;;;;25.00;14.80;;;;;;;18.06;88.22;99535.45;435140;1256;108561;-42
2023/09/26 07:14:26;;;;;;;14.80;11.90;;;;;;;18.14;87.99;99537.96;435333;1254;99468;-42
2023/09/26 07:24:35;;;;;;;26.50;10.40;;;;;;;18.27;87.51;99545.29;435333;1251;111837;-43
2023/09/26 07:34:57;;;;;;;15.00;10.20;;;;;;;18.33;87.11;99547.46;435319;1256;109296;-42
2023/09/26 07:45:03;;;;;;;;;;;;;;;18.42;86.75;99546.67;435344;1256;99249;-43
2023/09/26 07:55:12;;;;;;;11.90;8.80;;;;;;;18.58;86.37;99549.55;435315;1254;109096;-45
2023/09/26 08:05:20;;;;;;;15.10;9.90;;;;;;;18.82;86.07;99552.77;435199;1251;99864;-42
2023/09/26 08:15:31;;;;;;;17.60;10.10;;;;;;;18.95;85.61;99557.75;435271;1256;112705;-42
2023/09/26 08:25:39;;;;;;;12.20;8.80;;;;;;;19.14;84.98;99552.72;435246;1251;108525;-42
2023/09/26 08:35:47;;;;;;;15.00;9.40;;;;;;;19.47;84.73;99559.70;435336;1255;97982;-41
2023/09/26 08:45:56;;;;;;;18.50;10.00;;;;;;;19.66;84.40;99553.30;435390;1256;108351;-41
2023/09/26 08:56:05;;;;;;;18.90;11.60;;;;;;;19.83;83.81;99553.38;435440;1251;98017;-42
2023/09/26 09:06:13;;;;;;;16.60;9.70;;;;;;;20.07;83.15;99557.58;435355;1256;111673;-44
2023/09/26 09:16:21;;;;;;;19.30;14.20;;;;;;;20.18;82.64;99559.02;435215;1256;106628;-43
2023/09/26 09:26:31;;;;;;;16.60;9.90;;;;;;;20.30;82.11;99554.13;435337;1256;99246;-42
2023/09/26 09:36:41;;;;;;;15.10;10.20;;;;;;;20.62;81.21;99553.01;435227;1264;108472;-42
2023/09/26 09:46:55;;;;;;;15.30;10.90;;;;;;;20.59;80.65;99552.00;435356;1254;99024;-41
2023/09/26 09:57:10;;;;;;;13.60;11.50;;;;;;;20.84;80.67;99542.08;435201;1251;112325;-40
2023/09/26 10:07:19;;;;;;;14.40;10.40;;;;;;;21.14;79.82;99533.55;435310;1251;108191;-42
2023/09/26 10:17:28;;;;;;;12.50;9.40;;;;;;;21.58;79.63;99530.73;435278;1256;98575;-41
2023/09/26 10:27:46;;;;;;;15.00;9.70;;;;;;;22.24;79.42;99523.91;435312;1256;109663;-41
2023/09/26 10:38:18;;;;;;;14.50;10.10;;;;;;;22.54;78.36;99517.91;435309;1255;99249;-43
2023/09/26 10:48:26;;;;;;;17.90;11.10;;;;;;;22.66;77.93;99513.45;435383;1251;112281;-41
2023/09/26 10:58:36;;;;;;;12.20;10.20;;;;;;;22.71;76.95;99509.17;435257;1252;108541;-41
2023/09/26 11:08:48;;;;;;;15.60;9.00;;;;;;;22.83;76.13;99496.94;435367;1251;99262;-41
2023/09/26 11:19:00;;;;;;;16.20;9.40;;;;;;;22.97;75.28;99488.52;435326;1255;107473;-40
2023/09/26 11:29:08;;;;;;;16.70;10.10;;;;;;;23.11;74.90;99484.20;435291;1253;98789;-41
2023/09/26 11:39:22;;;;;;;14.30;10.00;;;;;;;23.26;74.45;99476.19;435339;1256;111704;-42
2023/09/26 11:49:30;;;;;;;17.80;9.90;;;;;;;23.19;73.16;99464.08;435283;1251;108566;-41
2023/09/26 11:59:38;;;;;;;15.30;8.70;;;;;;;23.23;73.31;99455.88;435390;1255;99288;-44
2023/09/26 12:09:47;;;;;;;16.80;9.30;;;;;;;23.25;72.64;99453.31;435041;1251;108715;-41
2023/09/26 12:19:55;;;;;;;11.40;8.90;;;;;;;23.25;72.54;99446.79;435378;1251;99094;-42
2023/09/26 12:30:06;;;;;;;15.30;9.80;;;;;;;23.35;72.13;99439.71;435149;1251;447926;-42
2023/09/26 12:40:15;;;;;;;11.80;8.90;;;;;;;23.47;71.74;99440.66;435362;1254;108273;-42
2023/09/26 12:50:25;;;;;;;18.10;8.40;;;;;;;23.59;71.51;99435.90;435444;1251;98579;-44
2023/09/26 13:00:36;;;;;;;23.20;8.20;;;;;;;23.67;71.31;99429.14;435433;1255;108610;-43
2023/09/26 13:10:44;;;;;;;15.20;6.80;;;;;;;23.77;70.95;99417.52;435364;1256;98011;-44
2023/09/26 13:20:53;;;;;;;10.00;7.20;;;;;;;23.74;69.86;99417.45;435401;1256;112037;-42
2023/09/26 13:31:01;;;;;;;18.30;7.50;;;;;;;23.74;69.33;99417.90;435300;1251;108628;-42
2023/09/26 13:41:09;;;;;;;12.50;7.90;;;;;;;23.77;68.96;99414.80;435350;1256;99292;-43
2023/09/26 13:51:17;;;;;;;15.80;8.00;;;;;;;23.84;68.76;99409.26;435311;1256;108892;-43
2023/09/26 14:01:25;;;;;;;14.80;9.40;;;;;;;23.86;68.13;99404.48;435596;1255;99269;-44
2023/09/26 14:11:33;;;;;;;11.50;10.20;;;;;;;23.94;67.29;99396.96;436465;1253;111192;-43
2023/09/26 14:21:41;;;;;;;12.70;9.60;;;;;;;24.01;67.54;99393.67;435503;1252;108537;-42
2023/09/26 14:31:49;;;;;;;13.00;9.70;;;;;;;24.00;67.72;99391.77;435330;1253;99240;-43
2023/09/26 14:41:57;;;;;;;14.30;11.20;;;;;;;23.89;67.74;99389.82;435208;1256;108589;-42
2023/09/26 14:52:07;;;;;;;14.80;11.60;;;;;;;23.73;67.95;99387.70;435400;1253;98009;-41
2023/09/26 15:02:15;;;;;;;14.90;8.40;;;;;;;23.65;68.46;99388.23;435274;1253;112520;-41
2023/09/26 15:12:23;;;;;;;15.20;9.80;;;;;;;23.62;69.21;99382.17;435226;1256;108588;-42
2023/09/26 15:22:34;;;;;;;19.20;9.80;;;;;;;23.51;69.26;99378.80;435298;1265;99218;-43
2023/09/26 15:32:42;;;;;;;14.10;8.70;;;;;;;23.35;69.24;99375.23;435446;1251;108298;-42
2023/09/26 15:42:51;;;;;;;13.80;9.20;;;;;;;23.19;69.60;99373.60;435131;1253;99250;-42
2023/09/26 15:52:59;;;;;;;14.90;10.30;;;;;;;23.05;70.16;99380.61;435263;1256;111882;-42
2023/09/26 16:03:07;;;;;;;20.70;12.40;;;;;;;22.81;70.75;99381.54;435346;1256;108611;-43
2023/09/26 16:13:17;;;;;;;17.70;12.70;;;;;;;22.52;71.27;99385.42;435355;1253;99224;-41
2023/09/26 16:23:25;;;;;;;20.40;12.00;;;;;;;22.22;71.78;99389.31;435176;1256;108620;-42
2023/09/26 16:33:46;;;;;;;24.70;15.30;;;;;;;21.95;72.49;99393.96;435201;1267;99218;-43
2023/09/26 16:43:54;;;;;;;24.30;15.60;;;;;;;21.69;73.29;99400.98;435317;1255;112136;-42
2023/09/26 16:54:03;;;;;;;30.40;19.00;;;;;;;21.41;73.82;99406.40;435354;1252;108342;-42
2023/09/26 17:04:12;;;;;;;31.00;19.50;;;;;;;21.09;74.41;99404.45;435322;1256;99337;-43
2023/09/26 17:14:23;;;;;;;33.10;21.60;;;;;;;20.86;74.87;99405.25;435237;1256;108313;-42
2023/09/26 17:24:32;;;;;;;31.70;19.90;;;;;;;20.61;75.60;99402.64;435251;1256;99215;-42
2023/09/26 17:34:40;;;;;;;27.00;17.60;;;;;;;20.44;76.32;99406.48;435318;1256;112248;-43
2023/09/26 17:44:48;;;;;;;29.00;18.40;;;;;;;20.31;76.75;99405.52;435047;1256;108835;-42
2023/09/26 17:54:56;;;;;;;22.90;17.20;;;;;;;20.19;77.31;99404.77;435017;1256;99234;-43
2023/09/26 18:05:05;;;;;;;26.10;17.60;;;;;;;20.09;77.54;99401.45;435288;1256;109166;-41
2023/09/26 18:15:13;;;;;;;23.60;17.80;;;;;;;19.97;77.78;99399.73;435311;1256;99221;-41
2023/09/26 18:25:22;;;;;;;28.20;19.10;;;;;;;19.80;78.11;99403.95;435242;1256;111815;-41
2023/09/26 18:35:30;;;;;;;24.80;17.40;;;;;;;19.60;78.33;99401.02;435180;1256;108870;-42
2023/09/26 18:45:43;;;;;;;28.50;21.70;;;;;;;19.33;78.70;99405.98;435343;1255;99238;-41
2023/09/26 18:55:52;;;;;;;30.60;18.40;;;;;;;19.03;79.03;99411.59;435649;1256;109602;-41
2023/09/26 19:06:02;;;;;;;27.50;20.80;;;;;;;18.85;79.40;99412.09;435202;1252;99227;-42
2023/09/26 19:16:11;;;;;;;32.30;20.60;;;;;;;18.61;79.77;99415.39;435192;1254;111880;-42
2023/09/26 19:26:19;;;;;;;25.10;18.80;;;;;;;18.42;80.21;99417.86;435188;1256;109338;-40
2023/09/26 19:36:26;;;;;;;;;;;;;;;18.28;80.63;99412.63;435033;1265;99246;-41
2023/09/26 19:46:34;;;;;;;30.40;20.80;;;;;;;18.34;81.59;99407.66;435346;1256;108582;-41
2023/09/26 19:56:43;;;;;;;28.40;19.60;;;;;;;18.49;81.54;99401.46;435284;1264;99218;-42
2023/09/26 20:06:49;;;;;;;;;;;;;;;18.47;81.74;99396.38;435669;1256;111264;-42
2023/09/26 20:16:57;;;;;;;37.40;21.80;;;;;;;18.52;82.04;99399.22;435367;1256;108514;-41
2023/09/26 20:27:06;;;;;;;29.10;20.50;;;;;;;18.58;82.15;99394.73;435249;1256;99249;-41
2023/09/26 20:37:15;;;;;;;27.80;20.10;;;;;;;18.61;82.28;99394.16;435165;1257;108316;-42
2023/09/26 20:47:23;;;;;;;37.10;23.70;;;;;;;18.58;82.30;99396.98;435348;1257;97993;-45
2023/09/26 20:57:32;;;;;;;27.80;21.10;;;;;;;18.52;82.46;99396.54;435224;1264;112279;-42
2023/09/26 21:07:40;;;;;;;31.40;21.70;;;;;;;18.40;82.54;99394.08;435508;1264;109942;-42
2023/09/26 21:17:48;;;;;;;36.40;22.60;;;;;;;18.26;82.92;99390.86;435251;1263;99101;-42
2023/09/26 21:27:57;;;;;;;34.00;23.10;;;;;;;18.12;83.19;99393.41;435233;1256;108365;-42
2023/09/26 21:38:05;;;;;;;34.00;24.40;;;;;;;18.02;83.45;99388.23;435915;1257;98034;-42
2023/09/26 21:48:13;;;;;;;37.80;23.40;;;;;;;17.96;84.00;99387.98;435252;1255;112192;-42
2023/09/26 21:58:22;;;;;;;31.10;22.20;;;;;;;17.95;84.03;99383.47;435290;1257;108606;-42
2023/09/26 22:08:30;;;;;;;32.80;22.20;;;;;;;17.87;84.09;99386.01;435326;1251;99214;-42
2023/09/26 22:18:38;;;;;;;30.10;22.30;;;;;;;17.73;84.14;99384.85;435256;1266;108564;-43
2023/09/26 22:28:46;;;;;;;30.00;19.80;;;;;;;17.55;84.09;99393.46;435191;1265;99231;-43
2023/09/26 22:38:54;;;;;;;29.00;21.00;;;;;;;17.37;84.34;99392.05;435392;1256;112160;-42
2023/09/26 22:49:00;;;;;;;;;;;;;;;17.19;84.24;99392.48;435323;1251;108558;-41
2023/09/26 22:59:08;;;;;;;31.90;25.50;;;;;;;16.73;84.21;99389.77;435427;1263;99269;-42
2023/09/26 23:09:17;;;;;;;38.70;25.50;;;;;;;16.49;84.53;99395.41;435251;1255;108659;-43
2023/09/26 23:19:24;;;;;;;;;;;;;;;16.45;84.93;99396.07;435213;1258;99209;-41
2023/09/26 23:29:32;;;;;;;40.70;26.70;;;;;;;16.46;85.57;99397.35;435245;1264;112610;-42
2023/09/26 23:39:39;;;;;;;;;;;;;;;16.47;86.03;99390.90;435222;1256;107968;-42
2023/09/26 23:49:47;;;;;;;31.00;23.80;;;;;;;16.44;86.86;99384.73;435267;1264;99221;-41
2023/09/26 23:59:55;;;;;;;35.40;25.50;;;;;;;16.47;87.35;99383.11;435508;1257;109245;-42
